createdAt,value
2019-04-25T00:00:17.020Z,10.16
2019-04-25T00:01:17.086Z,10.13
2019-04-25T00:02:16.342Z,10.10
2019-04-25T00:03:16.625Z,10.06
2019-04-25T00:04:16.893Z,10.02
2019-04-25T00:05:17.155Z,9.96
2019-04-25T00:06:16.425Z,9.99
2019-04-25T00:07:16.697Z,9.98
2019-04-25T00:08:17.013Z,9.91
2019-04-25T00:09:16.282Z,9.89
2019-04-25T00:10:16.561Z,9.88
2019-04-25T00:11:16.614Z,9.84
2019-04-25T00:12:16.872Z,9.82
2019-04-25T00:13:17.130Z,9.75
2019-04-25T00:14:16.418Z,9.74
2019-04-25T00:15:16.678Z,9.72
2019-04-25T00:16:16.934Z,9.66
2019-04-25T00:17:17.192Z,9.65
2019-04-25T00:18:16.448Z,9.65
2019-04-25T00:19:16.707Z,9.58
2019-04-25T00:20:16.993Z,9.53
2019-04-25T00:21:17.056Z,9.45
2019-04-25T00:22:16.322Z,9.40
2019-04-25T00:23:16.597Z,9.38
2019-04-25T00:24:16.863Z,9.33
2019-04-25T00:25:17.908Z,9.24
2019-04-25T00:26:16.416Z,9.26
2019-04-25T00:27:16.678Z,9.17
2019-04-25T00:28:16.944Z,9.17
2019-04-25T00:29:16.214Z,9.13
2019-04-25T00:30:16.505Z,9.07
2019-04-25T00:31:16.539Z,9.05
2019-04-25T00:32:16.799Z,8.98
2019-04-25T00:33:17.042Z,8.95
2019-04-25T00:34:16.320Z,8.91
2019-04-25T00:35:16.589Z,8.86
2019-04-25T00:36:16.851Z,8.76
2019-04-25T00:37:17.113Z,8.74
2019-04-25T00:38:16.380Z,8.64
2019-04-25T00:39:16.651Z,8.59
2019-04-25T00:40:16.914Z,8.54
2019-04-25T00:41:16.956Z,8.51
2019-04-25T00:42:16.222Z,8.44
2019-04-25T00:43:16.513Z,8.45
2019-04-25T00:44:16.773Z,8.43
2019-04-25T00:45:17.036Z,8.39
2019-04-25T00:46:16.295Z,8.44
2019-04-25T00:47:16.556Z,8.37
2019-04-25T00:48:16.810Z,8.31
2019-04-25T00:49:17.084Z,8.30
2019-04-25T00:50:16.378Z,8.23
2019-04-25T00:51:16.416Z,8.14
2019-04-25T00:52:16.685Z,8.13
2019-04-25T00:53:16.960Z,8.05
2019-04-25T00:54:16.231Z,8.02
2019-04-25T00:55:26.047Z,8.03
2019-04-25T00:56:17.201Z,8.00
2019-04-25T00:57:16.470Z,8.02
2019-04-25T00:58:16.735Z,8.23
2019-04-25T00:59:16.997Z,8.26
2019-04-25T01:00:16.290Z,8.10
2019-04-25T01:01:16.330Z,8.06
2019-04-25T01:02:16.598Z,8.06
2019-04-25T01:03:16.861Z,8.05
2019-04-25T01:04:17.127Z,7.99
2019-04-25T01:05:16.397Z,7.99
2019-04-25T01:06:16.664Z,7.92
2019-04-25T01:07:16.931Z,7.88
2019-04-25T01:08:17.199Z,7.89
2019-04-25T01:09:16.473Z,7.84
2019-04-25T01:10:16.740Z,7.81
2019-04-25T01:11:16.788Z,7.78
2019-04-25T01:12:17.046Z,7.68
2019-04-25T01:13:16.324Z,7.69
2019-04-25T01:14:16.595Z,7.65
2019-04-25T01:15:16.894Z,7.61
2019-04-25T01:16:17.166Z,7.66
2019-04-25T01:17:16.429Z,7.65
2019-04-25T01:18:16.711Z,7.62
2019-04-25T01:19:16.966Z,7.66
2019-04-25T01:20:16.243Z,7.69
2019-04-25T01:21:16.283Z,7.75
2019-04-25T01:22:16.549Z,7.68
2019-04-25T01:23:16.806Z,7.55
2019-04-25T01:24:17.076Z,7.55
2019-04-25T01:25:16.341Z,7.54
2019-04-25T01:26:16.602Z,7.47
2019-04-25T01:27:16.856Z,7.38
2019-04-25T01:28:17.126Z,7.38
2019-04-25T01:29:16.396Z,7.34
2019-04-25T01:30:16.683Z,7.30
2019-04-25T01:31:16.721Z,7.27
2019-04-25T01:32:16.983Z,7.24
2019-04-25T01:33:16.247Z,7.19
2019-04-25T01:34:16.517Z,7.13
2019-04-25T01:35:16.793Z,7.12
2019-04-25T01:36:17.060Z,7.10
2019-04-25T01:37:16.345Z,7.09
2019-04-25T01:38:16.615Z,7.07
2019-04-25T01:39:16.901Z,7.07
2019-04-25T01:40:17.712Z,7.15
2019-04-25T01:41:16.239Z,7.12
2019-04-25T01:42:16.494Z,7.15
2019-04-25T01:43:16.758Z,7.15
2019-04-25T01:44:17.021Z,7.12
2019-04-25T01:45:16.280Z,7.13
2019-04-25T01:46:16.552Z,7.12
2019-04-25T01:47:16.813Z,7.09
2019-04-25T01:48:17.081Z,7.12
2019-04-25T01:49:16.346Z,7.12
2019-04-25T01:50:16.617Z,7.10
2019-04-25T01:51:16.667Z,7.03
2019-04-25T01:52:16.930Z,6.99
2019-04-25T01:53:17.205Z,6.95
2019-04-25T01:54:16.460Z,6.95
2019-04-25T01:55:16.724Z,6.98
2019-04-25T01:56:16.995Z,6.95
2019-04-25T01:57:16.256Z,6.95
2019-04-25T01:58:16.531Z,6.91
2019-04-25T01:59:16.832Z,6.82
2019-04-25T02:00:17.115Z,6.81
2019-04-25T02:01:17.170Z,6.84
2019-04-25T02:02:16.436Z,6.81
2019-04-25T02:03:16.705Z,6.79
2019-04-25T02:04:16.976Z,6.74
2019-04-25T02:05:16.268Z,6.67
2019-04-25T02:06:16.530Z,6.63
2019-04-25T02:07:16.805Z,6.55
2019-04-25T02:08:17.073Z,6.49
2019-04-25T02:09:16.338Z,6.48
2019-04-25T02:10:16.624Z,6.44
2019-04-25T02:11:16.672Z,6.45
2019-04-25T02:12:16.308Z,6.45
2019-04-25T02:13:16.583Z,6.43
2019-04-25T02:14:16.849Z,6.38
2019-04-25T02:15:17.128Z,6.34
2019-04-25T02:16:16.787Z,6.37
2019-04-25T02:17:17.055Z,6.31
2019-04-25T02:18:16.333Z,6.34
2019-04-25T02:19:16.589Z,6.31
2019-04-25T02:20:16.859Z,6.36
2019-04-25T02:21:16.902Z,6.36
2019-04-25T02:22:17.165Z,6.34
2019-04-25T02:23:16.420Z,6.31
2019-04-25T02:24:16.690Z,6.34
2019-04-25T02:25:16.961Z,6.33
2019-04-25T02:26:18.519Z,6.31
2019-04-25T02:27:16.968Z,6.24
2019-04-25T02:28:16.239Z,6.27
2019-04-25T02:29:16.494Z,6.20
2019-04-25T02:30:16.787Z,6.23
2019-04-25T02:31:18.298Z,6.19
2019-04-25T02:32:16.757Z,6.20
2019-04-25T02:33:17.037Z,6.14
2019-04-25T02:34:18.087Z,6.14
2019-04-25T02:35:16.593Z,6.14
2019-04-25T02:36:16.869Z,6.12
2019-04-25T02:37:17.141Z,6.09
2019-04-25T02:38:16.934Z,6.06
2019-04-25T02:39:16.409Z,6.10
2019-04-25T02:40:16.691Z,6.06
2019-04-25T02:41:16.719Z,6.09
2019-04-25T02:42:17.142Z,6.03
2019-04-25T02:43:16.464Z,6.02
2019-04-25T02:44:16.761Z,6.03
2019-04-25T02:45:17.039Z,6.03
2019-04-25T02:46:16.315Z,5.99
2019-04-25T02:47:16.577Z,5.99
2019-04-25T02:48:16.841Z,5.99
2019-04-25T02:49:29.247Z,5.95
2019-04-25T02:50:17.173Z,5.99
2019-04-25T02:51:17.223Z,5.96
2019-04-25T02:52:18.026Z,5.93
2019-04-25T02:53:16.559Z,5.86
2019-04-25T02:54:16.838Z,5.82
2019-04-25T02:55:30.594Z,5.79
2019-04-25T02:56:29.710Z,5.82
2019-04-25T02:57:17.047Z,5.77
2019-04-25T02:58:16.310Z,5.75
2019-04-25T02:59:16.578Z,5.71
2019-04-25T03:00:16.892Z,5.68
2019-04-25T03:01:22.162Z,5.68
2019-04-25T03:02:17.199Z,5.62
2019-04-25T03:03:16.457Z,5.60
2019-04-25T03:04:16.736Z,5.58
2019-04-25T03:05:17.051Z,5.60
2019-04-25T03:06:16.437Z,5.55
2019-04-25T03:07:17.395Z,5.54
2019-04-25T03:08:17.127Z,5.57
2019-04-25T03:09:16.402Z,5.65
2019-04-25T03:10:16.697Z,5.62
2019-04-25T03:11:16.739Z,5.68
2019-04-25T03:12:28.860Z,5.67
2019-04-25T03:13:16.686Z,5.67
2019-04-25T03:14:16.955Z,5.72
2019-04-25T03:15:16.250Z,5.74
2019-04-25T03:16:16.530Z,5.70
2019-04-25T03:17:16.811Z,5.62
2019-04-25T03:18:17.096Z,5.60
2019-04-25T03:19:16.370Z,5.58
2019-04-25T03:20:16.642Z,5.58
2019-04-25T03:21:17.567Z,5.55
2019-04-25T03:22:17.099Z,5.52
2019-04-25T03:23:16.374Z,5.57
2019-04-25T03:24:16.977Z,5.55
2019-04-25T03:25:17.273Z,5.60
2019-04-25T03:26:17.077Z,5.64
2019-04-25T03:27:16.348Z,5.58
2019-04-25T03:28:16.624Z,5.57
2019-04-25T03:29:16.914Z,5.57
2019-04-25T03:30:18.042Z,5.55
2019-04-25T03:31:22.321Z,5.54
2019-04-25T03:32:19.267Z,5.57
2019-04-25T03:33:19.449Z,5.57
2019-04-25T03:34:19.794Z,5.51
2019-04-25T03:35:17.197Z,5.50
2019-04-25T03:36:16.880Z,5.47
2019-04-25T03:37:16.528Z,5.43
2019-04-25T03:38:16.801Z,5.38
2019-04-25T03:39:17.066Z,5.38
2019-04-25T03:40:16.341Z,5.35
2019-04-25T03:41:16.384Z,5.31
2019-04-25T03:42:16.652Z,5.28
2019-04-25T03:43:16.920Z,5.28
2019-04-25T03:44:17.180Z,5.27
2019-04-25T03:45:16.440Z,5.27
2019-04-25T03:46:16.708Z,5.23
2019-04-25T03:47:16.974Z,5.23
2019-04-25T03:48:16.240Z,5.22
2019-04-25T03:49:16.509Z,5.13
2019-04-25T03:50:16.778Z,5.07
2019-04-25T03:51:16.832Z,5.06
2019-04-25T03:52:17.097Z,5.06
2019-04-25T03:53:16.354Z,5.02
2019-04-25T03:54:16.637Z,5.00
2019-04-25T03:55:16.897Z,4.99
2019-04-25T03:56:17.174Z,4.98
2019-04-25T03:57:16.437Z,4.92
2019-04-25T03:58:16.706Z,4.86
2019-04-25T03:59:16.977Z,4.88
2019-04-25T04:00:16.266Z,4.86
2019-04-25T04:01:16.323Z,4.85
2019-04-25T04:02:16.590Z,4.82
2019-04-25T04:03:16.853Z,4.81
2019-04-25T04:04:17.124Z,4.81
2019-04-25T04:05:16.385Z,4.84
2019-04-25T04:06:16.667Z,4.78
2019-04-25T04:07:16.498Z,4.79
2019-04-25T04:08:16.772Z,4.75
2019-04-25T04:09:17.036Z,4.75
2019-04-25T04:10:16.572Z,4.72
2019-04-25T04:11:16.572Z,4.72
2019-04-25T04:12:16.829Z,4.75
2019-04-25T04:13:17.101Z,4.75
2019-04-25T04:14:16.383Z,4.71
2019-04-25T04:15:16.659Z,4.74
2019-04-25T04:16:16.932Z,4.71
2019-04-25T04:17:17.195Z,4.69
2019-04-25T04:18:17.363Z,4.65
2019-04-25T04:19:16.703Z,4.64
2019-04-25T04:20:16.984Z,4.63
2019-04-25T04:21:17.381Z,4.61
2019-04-25T04:22:16.786Z,4.65
2019-04-25T04:23:17.052Z,4.61
2019-04-25T04:24:16.317Z,4.64
2019-04-25T04:25:16.602Z,4.65
2019-04-25T04:26:16.879Z,4.72
2019-04-25T04:27:17.152Z,4.71
2019-04-25T04:28:16.424Z,4.78
2019-04-25T04:29:16.687Z,4.84
2019-04-25T04:30:16.972Z,4.86
2019-04-25T04:31:16.982Z,4.86
2019-04-25T04:32:17.061Z,4.88
2019-04-25T04:33:28.019Z,4.91
2019-04-25T04:34:16.977Z,4.89
2019-04-25T04:35:17.404Z,4.93
2019-04-25T04:36:17.654Z,4.96
2019-04-25T04:37:16.351Z,4.98
2019-04-25T04:38:16.715Z,4.98
2019-04-25T04:39:17.733Z,4.99
2019-04-25T04:40:18.286Z,4.98
2019-04-25T04:41:17.827Z,4.99
2019-04-25T04:42:17.907Z,5.00
2019-04-25T04:43:16.551Z,4.98
2019-04-25T04:44:16.859Z,4.98
2019-04-25T04:45:17.120Z,4.98
2019-04-25T04:46:18.150Z,4.99
2019-04-25T04:47:16.981Z,4.99
2019-04-25T04:48:16.696Z,4.96
2019-04-25T04:49:17.034Z,4.95
2019-04-25T04:50:16.614Z,4.99
2019-04-25T04:51:16.937Z,4.98
2019-04-25T04:52:16.975Z,4.98
2019-04-25T04:53:17.123Z,5.00
2019-04-25T04:54:17.115Z,4.96
2019-04-25T04:55:17.560Z,5.00
2019-04-25T04:56:17.588Z,5.07
2019-04-25T04:57:26.190Z,5.07
2019-04-25T04:58:17.635Z,5.12
2019-04-25T04:59:16.616Z,5.13
2019-04-25T05:00:16.949Z,5.19
2019-04-25T05:01:16.959Z,5.23
2019-04-25T05:02:17.146Z,5.22
2019-04-25T05:03:16.927Z,5.26
2019-04-25T05:04:16.886Z,5.33
2019-04-25T05:05:17.142Z,5.33
2019-04-25T05:06:17.191Z,5.34
2019-04-25T05:07:17.441Z,5.38
2019-04-25T05:08:17.288Z,5.44
2019-04-25T05:09:16.601Z,5.40
2019-04-25T05:10:18.640Z,5.44
2019-04-25T05:11:17.274Z,5.47
2019-04-25T05:12:17.297Z,5.52
2019-04-25T05:13:17.203Z,5.54
2019-04-25T05:14:16.273Z,5.54
2019-04-25T05:15:17.648Z,5.61
2019-04-25T05:16:16.349Z,5.65
2019-04-25T05:17:16.803Z,5.65
2019-04-25T05:18:31.383Z,5.72
2019-04-25T05:19:16.865Z,5.74
2019-04-25T05:20:17.562Z,5.82
2019-04-25T05:21:17.126Z,5.85
2019-04-25T05:22:16.850Z,5.86
2019-04-25T05:23:17.180Z,5.93
2019-04-25T05:24:17.313Z,5.96
2019-04-25T05:25:17.727Z,6.02
2019-04-25T05:26:17.156Z,6.14
2019-04-25T05:27:24.844Z,6.16
2019-04-25T05:28:18.144Z,6.20
2019-04-25T05:29:20.796Z,6.26
2019-04-25T05:30:17.700Z,6.29
2019-04-25T05:31:17.109Z,6.41
2019-04-25T05:32:17.219Z,6.49
2019-04-25T05:33:18.883Z,6.47
2019-04-25T05:34:17.214Z,6.47
2019-04-25T05:35:16.613Z,6.48
2019-04-25T05:36:17.505Z,6.59
2019-04-25T05:37:17.546Z,6.64
2019-04-25T05:38:17.597Z,6.69
2019-04-25T05:39:18.003Z,6.75
2019-04-25T05:40:17.092Z,6.84
2019-04-25T05:41:16.889Z,6.88
2019-04-25T05:42:17.250Z,6.88
2019-04-25T05:43:16.715Z,6.91
2019-04-25T05:44:16.990Z,7.00
2019-04-25T05:45:18.250Z,7.03
2019-04-25T05:46:17.108Z,7.09
2019-04-25T05:47:17.158Z,7.15
2019-04-25T05:48:17.173Z,7.20
2019-04-25T05:49:17.148Z,7.54
2019-04-25T05:50:16.506Z,7.61
2019-04-25T05:51:17.349Z,7.68
2019-04-25T05:52:17.510Z,7.72
2019-04-25T05:53:17.670Z,7.77
2019-04-25T05:54:17.838Z,7.82
2019-04-25T05:55:18.568Z,7.89
2019-04-25T05:56:16.526Z,7.88
2019-04-25T05:57:16.816Z,7.92
2019-04-25T05:58:17.070Z,7.99
2019-04-25T05:59:17.313Z,8.08
2019-04-25T06:00:16.651Z,8.12
2019-04-25T06:01:17.164Z,8.14
2019-04-25T06:02:17.790Z,8.21
2019-04-25T06:03:17.238Z,8.23
2019-04-25T06:04:17.800Z,8.34
2019-04-25T06:05:16.689Z,8.45
2019-04-25T06:06:17.530Z,8.51
2019-04-25T06:07:17.876Z,8.52
2019-04-25T06:08:17.464Z,8.65
2019-04-25T06:09:17.636Z,8.75
2019-04-25T06:10:17.163Z,8.92
2019-04-25T06:11:17.896Z,8.94
2019-04-25T06:12:16.290Z,8.99
2019-04-25T06:13:17.338Z,8.98
2019-04-25T06:14:16.366Z,9.10
2019-04-25T06:15:17.647Z,9.17
2019-04-25T06:16:16.684Z,9.23
2019-04-25T06:17:16.941Z,9.43
2019-04-25T06:18:17.194Z,9.45
2019-04-25T06:19:18.876Z,9.48
2019-04-25T06:20:16.390Z,9.54
2019-04-25T06:21:16.415Z,9.62
2019-04-25T06:22:16.681Z,9.85
2019-04-25T06:23:16.942Z,9.85
2019-04-25T06:24:16.213Z,9.92
2019-04-25T06:25:16.657Z,10.19
2019-04-25T06:26:23.262Z,10.12
2019-04-25T06:27:16.634Z,10.30
2019-04-25T06:28:16.915Z,10.39
2019-04-25T06:29:17.179Z,10.44
2019-04-25T06:30:16.456Z,10.47
2019-04-25T06:31:16.503Z,10.51
2019-04-25T06:32:16.794Z,10.67
2019-04-25T06:33:17.079Z,10.81
2019-04-25T06:34:16.371Z,10.79
2019-04-25T06:35:16.642Z,10.88
2019-04-25T06:36:16.895Z,10.78
2019-04-25T06:37:17.156Z,10.87
2019-04-25T06:38:16.414Z,10.89
2019-04-25T06:39:16.698Z,10.94
2019-04-25T06:40:16.997Z,11.00
2019-04-25T06:41:17.028Z,11.06
2019-04-25T06:42:16.284Z,11.07
2019-04-25T06:43:16.539Z,11.12
2019-04-25T06:44:16.811Z,11.36
2019-04-25T06:45:17.077Z,11.54
2019-04-25T06:46:16.333Z,11.58
2019-04-25T06:47:16.596Z,11.58
2019-04-25T06:48:16.865Z,11.70
2019-04-25T06:49:17.141Z,11.85
2019-04-25T06:50:16.411Z,11.74
2019-04-25T06:51:16.494Z,11.64
2019-04-25T06:52:16.759Z,11.68
2019-04-25T06:53:17.023Z,11.72
2019-04-25T06:54:16.289Z,11.80
2019-04-25T06:55:16.559Z,12.06
2019-04-25T06:56:16.837Z,12.18
2019-04-25T06:57:17.106Z,12.33
2019-04-25T06:58:16.379Z,12.40
2019-04-25T06:59:16.657Z,12.57
2019-04-25T07:00:16.944Z,12.57
2019-04-25T07:01:16.994Z,12.57
2019-04-25T07:02:16.256Z,12.60
2019-04-25T07:03:16.514Z,12.64
2019-04-25T07:04:16.770Z,12.68
2019-04-25T07:05:26.325Z,12.74
2019-04-25T07:06:17.018Z,12.78
2019-04-25T07:07:16.277Z,12.85
2019-04-25T07:08:16.547Z,12.91
2019-04-25T07:09:16.832Z,12.82
2019-04-25T07:10:17.105Z,12.95
2019-04-25T07:11:17.180Z,12.89
2019-04-25T07:12:16.441Z,12.88
2019-04-25T07:13:16.702Z,12.98
2019-04-25T07:14:16.971Z,13.23
2019-04-25T07:15:16.262Z,13.37
2019-04-25T07:16:16.519Z,13.87
2019-04-25T07:17:16.787Z,14.02
2019-04-25T07:18:17.052Z,13.68
2019-04-25T07:19:17.547Z,13.95
2019-04-25T07:20:16.961Z,13.84
2019-04-25T07:21:17.008Z,13.91
2019-04-25T07:22:16.266Z,14.02
2019-04-25T07:23:16.529Z,14.11
2019-04-25T07:24:17.543Z,14.23
2019-04-25T07:25:16.923Z,14.12
2019-04-25T07:26:17.180Z,14.32
2019-04-25T07:27:16.450Z,14.29
2019-04-25T07:29:17.074Z,14.23
2019-04-25T07:30:26.831Z,14.40
2019-04-25T07:31:16.688Z,14.50
2019-04-25T07:32:16.977Z,14.70
2019-04-25T07:33:16.239Z,14.55
2019-04-25T07:34:16.495Z,14.62
2019-04-25T07:35:16.754Z,14.74
2019-04-25T07:36:17.018Z,14.90
2019-04-25T07:37:16.290Z,15.19
2019-04-25T07:38:16.550Z,15.46
2019-04-25T07:39:16.820Z,15.46
2019-04-25T07:40:17.086Z,15.70
2019-04-25T07:41:17.134Z,15.98
2019-04-25T07:42:16.393Z,16.15
2019-04-25T07:43:16.653Z,15.73
2019-04-25T07:44:16.994Z,15.73
2019-04-25T07:45:16.560Z,15.92
2019-04-25T07:46:17.019Z,15.84
2019-04-25T07:47:16.293Z,15.91
2019-04-25T07:48:16.554Z,16.00
2019-04-25T07:49:16.845Z,16.07
2019-04-25T07:50:17.137Z,16.36
2019-04-25T07:51:17.166Z,16.53
2019-04-25T07:52:16.431Z,16.56
2019-04-25T07:53:16.686Z,16.55
2019-04-25T07:54:16.970Z,16.47
2019-04-25T07:55:16.237Z,16.55
2019-04-25T07:56:16.501Z,16.63
2019-04-25T07:57:16.774Z,16.42
2019-04-25T07:58:17.048Z,16.55
2019-04-25T07:59:16.330Z,16.77
2019-04-25T08:00:16.620Z,16.80
2019-04-25T08:01:16.651Z,17.00
2019-04-25T08:02:16.916Z,16.87
2019-04-25T08:03:17.177Z,16.93
2019-04-25T08:04:16.454Z,16.97
2019-04-25T08:05:16.717Z,17.28
2019-04-25T08:06:16.988Z,17.32
2019-04-25T08:07:16.248Z,17.18
2019-04-25T08:08:16.516Z,17.22
2019-04-25T08:09:16.786Z,17.42
2019-04-25T08:10:17.065Z,17.53
2019-04-25T08:11:17.112Z,17.49
2019-04-25T08:12:16.373Z,17.52
2019-04-25T08:13:16.826Z,17.54
2019-04-25T08:14:17.092Z,17.68
2019-04-25T08:15:16.374Z,17.66
2019-04-25T08:16:16.642Z,17.50
2019-04-25T08:17:16.899Z,17.74
2019-04-25T08:18:17.149Z,17.74
2019-04-25T08:19:16.417Z,17.83
2019-04-25T08:20:16.701Z,17.87
2019-04-25T08:21:16.757Z,17.90
2019-04-25T08:22:17.021Z,17.81
2019-04-25T08:23:16.301Z,18.00
2019-04-25T08:24:16.579Z,18.08
2019-04-25T08:25:16.844Z,18.32
2019-04-25T08:26:17.103Z,18.36
2019-04-25T08:27:16.368Z,18.08
2019-04-25T08:28:16.626Z,18.48
2019-04-25T08:29:16.894Z,18.38
2019-04-25T08:30:17.167Z,18.54
2019-04-25T08:31:16.226Z,18.46
2019-04-25T08:32:16.494Z,18.54
2019-04-25T08:33:16.761Z,18.54
2019-04-25T08:34:17.036Z,18.60
2019-04-25T08:35:16.316Z,18.75
2019-04-25T08:36:16.588Z,18.77
2019-04-25T08:37:18.629Z,18.70
2019-04-25T08:38:16.378Z,18.84
2019-04-25T08:39:16.657Z,18.87
2019-04-25T08:40:16.943Z,18.88
2019-04-25T08:41:16.972Z,18.86
2019-04-25T08:42:16.243Z,18.84
2019-04-25T08:43:16.504Z,19.18
2019-04-25T08:44:16.769Z,18.97
2019-04-25T08:45:17.043Z,19.34
2019-04-25T08:46:16.301Z,19.46
2019-04-25T08:47:16.576Z,19.38
2019-04-25T08:48:16.846Z,19.46
2019-04-25T08:49:17.114Z,19.59
2019-04-25T08:50:26.642Z,19.44
2019-04-25T08:51:16.780Z,19.37
2019-04-25T08:52:17.053Z,19.48
2019-04-25T08:53:16.324Z,19.37
2019-04-25T08:54:16.584Z,19.53
2019-04-25T08:55:16.845Z,19.53
2019-04-25T08:56:17.105Z,19.74
2019-04-25T08:57:16.389Z,19.49
2019-04-25T08:58:16.651Z,19.58
2019-04-25T08:59:16.928Z,19.55
2019-04-25T09:00:17.212Z,19.72
2019-04-25T09:01:16.250Z,19.58
2019-04-25T09:02:16.512Z,19.68
2019-04-25T09:03:16.774Z,19.68
2019-04-25T09:04:17.041Z,19.66
2019-04-25T09:05:16.294Z,19.89
2019-04-25T09:06:16.557Z,20.00
2019-04-25T09:07:16.824Z,20.00
2019-04-25T09:08:17.080Z,19.93
2019-04-25T09:09:16.345Z,20.04
2019-04-25T09:10:16.621Z,20.20
2019-04-25T09:11:16.661Z,20.20
2019-04-25T09:12:16.937Z,20.24
2019-04-25T09:13:16.284Z,20.38
2019-04-25T09:14:16.547Z,20.46
2019-04-25T09:15:16.805Z,20.51
2019-04-25T09:16:17.079Z,20.35
2019-04-25T09:17:16.341Z,20.42
2019-04-25T09:18:16.603Z,20.58
2019-04-25T09:19:16.878Z,20.55
2019-04-25T09:20:17.155Z,20.32
2019-04-25T09:21:17.203Z,20.46
2019-04-25T09:22:16.460Z,20.39
2019-04-25T09:23:16.722Z,20.59
2019-04-25T09:24:16.992Z,20.80
2019-04-25T09:25:16.258Z,20.72
2019-04-25T09:26:16.526Z,20.76
2019-04-25T09:27:16.785Z,20.63
2019-04-25T09:28:17.055Z,20.48
2019-04-25T09:29:18.997Z,20.89
2019-04-25T09:30:16.278Z,20.94
2019-04-25T09:31:16.330Z,21.09
2019-04-25T09:32:16.594Z,21.11
2019-04-25T09:33:16.853Z,21.06
2019-04-25T09:34:17.127Z,21.09
2019-04-25T09:35:16.392Z,20.99
2019-04-25T09:36:16.658Z,20.94
2019-04-25T09:37:16.937Z,21.33
2019-04-25T09:38:17.198Z,21.51
2019-04-25T09:39:16.467Z,21.37
2019-04-25T09:40:16.749Z,21.13
2019-04-25T09:41:16.795Z,21.02
2019-04-25T09:42:17.079Z,21.10
2019-04-25T09:43:16.343Z,21.31
2019-04-25T09:44:16.618Z,21.49
2019-04-25T09:45:16.891Z,21.30
2019-04-25T09:46:17.180Z,21.17
2019-04-25T09:47:16.456Z,21.24
2019-04-25T09:48:16.739Z,21.20
2019-04-25T09:49:17.005Z,21.37
2019-04-25T09:50:16.278Z,21.44
2019-04-25T09:51:16.330Z,21.55
2019-04-25T09:52:16.599Z,21.66
2019-04-25T09:53:23.056Z,21.38
2019-04-25T09:54:17.027Z,21.23
2019-04-25T09:55:16.291Z,21.07
2019-04-25T09:56:16.549Z,21.52
2019-04-25T09:57:16.827Z,21.48
2019-04-25T09:58:17.102Z,21.52
2019-04-25T09:59:26.662Z,21.48
2019-04-25T10:00:16.238Z,21.78
2019-04-25T10:01:16.296Z,21.70
2019-04-25T10:02:16.557Z,21.69
2019-04-25T10:03:16.812Z,21.69
2019-04-25T10:04:17.080Z,21.66
2019-04-25T10:05:16.351Z,21.78
2019-04-25T10:06:16.624Z,21.80
2019-04-25T10:07:16.891Z,21.92
2019-04-25T10:08:17.148Z,21.73
2019-04-25T10:09:16.420Z,21.76
2019-04-25T10:10:16.717Z,21.91
2019-04-25T10:11:16.735Z,21.65
2019-04-25T10:12:16.997Z,21.89
2019-04-25T10:13:16.268Z,21.88
2019-04-25T10:14:16.532Z,21.79
2019-04-25T10:15:16.808Z,21.86
2019-04-25T10:16:17.072Z,21.97
2019-04-25T10:17:16.343Z,22.05
2019-04-25T10:18:16.609Z,22.30
2019-04-25T10:19:16.913Z,22.54
2019-04-25T10:20:17.181Z,22.47
2019-04-25T10:21:16.218Z,22.45
2019-04-25T10:22:16.473Z,22.48
2019-04-25T10:23:16.741Z,22.43
2019-04-25T10:24:17.002Z,22.38
2019-04-25T10:25:16.282Z,22.23
2019-04-25T10:26:16.565Z,22.21
2019-04-25T10:27:16.834Z,22.20
2019-04-25T10:28:17.097Z,22.37
2019-04-25T10:29:16.359Z,22.24
2019-04-25T10:30:20.660Z,22.55
2019-04-25T10:31:16.685Z,22.78
2019-04-25T10:32:16.955Z,22.78
2019-04-25T10:33:16.240Z,22.51
2019-04-25T10:34:16.503Z,22.47
2019-04-25T10:35:16.762Z,22.55
2019-04-25T10:36:17.043Z,22.60
2019-04-25T10:37:16.305Z,22.61
2019-04-25T10:38:16.567Z,22.91
2019-04-25T10:39:16.871Z,22.60
2019-04-25T10:40:16.244Z,22.43
2019-04-25T10:41:16.288Z,22.78
2019-04-25T10:42:16.547Z,22.79
2019-04-25T10:43:17.151Z,22.93
2019-04-25T10:44:16.417Z,22.74
2019-04-25T10:45:22.977Z,22.85
2019-04-25T10:46:16.732Z,22.93
2019-04-25T10:47:16.984Z,22.86
2019-04-25T10:48:16.265Z,22.93
2019-04-25T10:49:16.525Z,22.98
2019-04-25T10:50:16.790Z,23.25
2019-04-25T10:51:16.838Z,23.23
2019-04-25T10:52:17.115Z,23.10
2019-04-25T10:53:16.425Z,23.02
2019-04-25T10:54:16.681Z,23.12
2019-04-25T10:55:16.962Z,23.25
2019-04-25T10:56:16.235Z,23.44
2019-04-25T10:57:16.496Z,23.51
2019-04-25T10:58:16.762Z,23.61
2019-04-25T10:59:17.044Z,23.65
2019-04-25T11:00:16.320Z,23.53
2019-04-25T11:01:16.380Z,23.37
2019-04-25T11:02:16.657Z,23.37
2019-04-25T11:03:16.924Z,23.41
2019-04-25T11:04:17.189Z,23.27
2019-04-25T11:05:16.460Z,23.27
2019-04-25T11:06:16.726Z,23.30
2019-04-25T11:07:16.989Z,23.41
2019-04-25T11:08:16.918Z,23.20
2019-04-25T11:09:16.266Z,24.24
2019-04-25T11:10:16.535Z,23.85
2019-04-25T11:11:16.577Z,23.96
2019-04-25T11:12:16.849Z,23.91
2019-04-25T11:13:16.321Z,24.08
2019-04-25T11:14:16.600Z,23.92
2019-04-25T11:15:16.871Z,23.96
2019-04-25T11:16:17.132Z,24.43
2019-04-25T11:17:16.399Z,24.32
2019-04-25T11:18:16.666Z,24.32
2019-04-25T11:19:16.928Z,24.42
2019-04-25T11:20:17.211Z,24.30
2019-04-25T11:21:16.245Z,24.19
2019-04-25T11:22:16.514Z,24.02
2019-04-25T11:23:16.793Z,23.99
2019-04-25T11:24:17.061Z,23.89
2019-04-25T11:25:16.334Z,23.88
2019-04-25T11:26:16.598Z,24.02
2019-04-25T11:27:16.868Z,24.53
2019-04-25T11:28:17.135Z,24.43
2019-04-25T11:29:16.409Z,24.36
2019-04-25T11:30:16.694Z,24.64
2019-04-25T11:31:16.721Z,24.75
2019-04-25T11:32:19.621Z,24.82
2019-04-25T11:33:16.374Z,24.42
2019-04-25T11:34:16.916Z,24.68
2019-04-25T11:35:16.242Z,24.56
2019-04-25T11:36:16.518Z,24.49
2019-04-25T11:37:16.782Z,24.53
2019-04-25T11:38:17.048Z,24.71
2019-04-25T11:39:16.305Z,25.12
2019-04-25T11:40:16.586Z,24.81
2019-04-25T11:41:16.613Z,24.81
2019-04-25T11:42:16.876Z,24.75
2019-04-25T11:43:17.141Z,24.61
2019-04-25T11:44:16.422Z,24.49
2019-04-25T11:45:16.694Z,24.60
2019-04-25T11:46:16.976Z,24.95
2019-04-25T11:47:16.256Z,24.84
2019-04-25T11:48:16.524Z,24.64
2019-04-25T11:49:16.788Z,24.80
2019-04-25T11:50:17.069Z,24.97
2019-04-25T11:51:17.108Z,25.09
2019-04-25T11:52:26.849Z,25.04
2019-04-25T11:53:16.443Z,24.67
2019-04-25T11:54:16.714Z,24.54
2019-04-25T11:55:16.998Z,24.53
2019-04-25T11:56:16.316Z,24.46
2019-04-25T11:57:16.578Z,24.70
2019-04-25T11:58:16.862Z,24.77
2019-04-25T11:59:17.155Z,24.87
2019-04-25T12:00:22.044Z,24.85
2019-04-25T12:01:16.469Z,25.02
2019-04-25T12:02:16.744Z,24.97
2019-04-25T12:03:17.020Z,24.85
2019-04-25T12:04:16.295Z,24.78
2019-04-25T12:05:16.572Z,25.05
2019-04-25T12:06:16.836Z,25.14
2019-04-25T12:07:17.101Z,25.17
2019-04-25T12:08:16.375Z,24.99
2019-04-25T12:09:16.653Z,24.75
2019-04-25T12:10:16.933Z,24.98
2019-04-25T12:11:16.972Z,25.07
2019-04-25T12:12:16.236Z,24.98
2019-04-25T12:13:16.615Z,24.92
2019-04-25T12:14:16.889Z,24.94
2019-04-25T12:15:17.155Z,24.85
2019-04-25T12:16:16.423Z,25.40
2019-04-25T12:17:16.696Z,25.14
2019-04-25T12:18:16.959Z,25.13
2019-04-25T12:19:16.228Z,25.11
2019-04-25T12:20:16.514Z,25.11
2019-04-25T12:21:16.542Z,25.07
2019-04-25T12:22:16.805Z,25.07
2019-04-25T12:23:17.074Z,24.99
2019-04-25T12:24:16.328Z,24.92
2019-04-25T12:25:16.612Z,24.89
2019-04-25T12:26:16.887Z,25.29
2019-04-25T12:27:17.149Z,25.61
2019-04-25T12:28:16.422Z,25.44
2019-04-25T12:29:16.703Z,25.38
2019-04-25T12:30:16.995Z,25.44
2019-04-25T12:31:17.033Z,25.17
2019-04-25T12:32:16.302Z,25.17
2019-04-25T12:33:20.805Z,25.14
2019-04-25T12:34:16.889Z,25.17
2019-04-25T12:35:17.164Z,25.32
2019-04-25T12:36:16.434Z,25.41
2019-04-25T12:37:16.700Z,25.42
2019-04-25T12:38:16.962Z,25.52
2019-04-25T12:39:16.228Z,25.45
2019-04-25T12:40:16.502Z,25.47
2019-04-25T12:41:16.552Z,25.42
2019-04-25T12:42:16.822Z,25.45
2019-04-25T12:43:17.093Z,25.45
2019-04-25T12:44:16.362Z,25.38
2019-04-25T12:45:16.654Z,25.38
2019-04-25T12:46:16.938Z,25.44
2019-04-25T12:47:16.209Z,25.28
2019-04-25T12:48:16.470Z,25.35
2019-04-25T12:49:16.726Z,25.38
2019-04-25T12:50:18.696Z,25.37
2019-04-25T12:51:17.066Z,25.31
2019-04-25T12:52:16.330Z,25.31
2019-04-25T12:53:16.588Z,25.06
2019-04-25T12:54:16.851Z,25.03
2019-04-25T12:55:17.118Z,24.96
2019-04-25T12:56:16.375Z,24.90
2019-04-25T12:57:16.641Z,24.82
2019-04-25T12:58:16.911Z,24.93
2019-04-25T12:59:17.180Z,25.17
2019-04-25T13:00:16.448Z,25.23
2019-04-25T13:01:16.512Z,25.10
2019-04-25T13:02:16.777Z,25.28
2019-04-25T13:03:17.040Z,25.24
2019-04-25T13:04:16.316Z,25.13
2019-04-25T13:05:16.577Z,25.02